sensor_id;sensor_type;location;lat;lon;timestamp;P1;durP1;ratioP1;P2;durP2;ratioP2
50126;SDS011;36024;47.974;16.398;2023-03-01T00:02:12;28.20;;;21.03;;
50126;SDS011;36024;47.974;16.398;2023-03-01T00:04:39;30.17;;;20.03;;
50126;SDS011;36024;47.974;16.398;2023-03-01T00:07:05;26.30;;;19.77;;
50126;SDS011;36024;47.974;16.398;2023-03-01T00:09:32;27.70;;;20.43;;
50126;SDS011;36024;47.974;16.398;2023-03-01T00:12:02;27.43;;;20.33;;
50126;SDS011;36024;47.974;16.398;2023-03-01T00:14:35;28.87;;;20.93;;
50126;SDS011;36024;47.974;16.398;2023-03-01T00:17:03;28.27;;;20.40;;
50126;SDS011;36024;47.974;16.398;2023-03-01T00:19:31;29.87;;;21.07;;
50126;SDS011;36024;47.974;16.398;2023-03-01T00:22:03;29.07;;;20.73;;
50126;SDS011;36024;47.974;16.398;2023-03-01T00:24:39;29.83;;;21.40;;
50126;SDS011;36024;47.974;16.398;2023-03-01T00:27:09;27.33;;;21.10;;
50126;SDS011;36024;47.974;16.398;2023-03-01T00:29:38;28.93;;;21.40;;
50126;SDS011;36024;47.974;16.398;2023-03-01T00:32:07;30.63;;;21.43;;
50126;SDS011;36024;47.974;16.398;2023-03-01T00:34:39;30.80;;;21.87;;
50126;SDS011;36024;47.974;16.398;2023-03-01T00:37:14;27.27;;;20.77;;
50126;SDS011;36024;47.974;16.398;2023-03-01T00:39:41;29.03;;;21.47;;
50126;SDS011;36024;47.974;16.398;2023-03-01T00:42:08;29.13;;;21.63;;
50126;SDS011;36024;47.974;16.398;2023-03-01T00:44:44;29.27;;;21.20;;
50126;SDS011;36024;47.974;16.398;2023-03-01T00:47:11;31.13;;;21.10;;
50126;SDS011;36024;47.974;16.398;2023-03-01T00:49:40;29.50;;;22.10;;
50126;SDS011;36024;47.974;16.398;2023-03-01T00:52:07;28.10;;;20.93;;
50126;SDS011;36024;47.974;16.398;2023-03-01T00:54:35;27.77;;;20.40;;
50126;SDS011;36024;47.974;16.398;2023-03-01T00:57:08;27.03;;;20.43;;
50126;SDS011;36024;47.974;16.398;2023-03-01T00:59:34;28.93;;;20.80;;
50126;SDS011;36024;47.974;16.398;2023-03-01T01:02:14;29.37;;;21.37;;
50126;SDS011;36024;47.974;16.398;2023-03-01T01:04:41;28.93;;;20.77;;
50126;SDS011;36024;47.974;16.398;2023-03-01T01:07:10;28.40;;;20.93;;
50126;SDS011;36024;47.974;16.398;2023-03-01T01:09:37;27.23;;;20.67;;
50126;SDS011;36024;47.974;16.398;2023-03-01T01:12:04;26.97;;;21.30;;
50126;SDS011;36024;47.974;16.398;2023-03-01T01:14:34;27.20;;;19.93;;
50126;SDS011;36024;47.974;16.398;2023-03-01T01:17:06;26.20;;;20.13;;
50126;SDS011;36024;47.974;16.398;2023-03-01T01:19:39;25.43;;;20.17;;
50126;SDS011;36024;47.974;16.398;2023-03-01T01:22:08;27.63;;;20.47;;
50126;SDS011;36024;47.974;16.398;2023-03-01T01:24:38;29.53;;;21.20;;
50126;SDS011;36024;47.974;16.398;2023-03-01T01:27:05;26.83;;;21.10;;
50126;SDS011;36024;47.974;16.398;2023-03-01T01:29:34;29.47;;;21.00;;
50126;SDS011;36024;47.974;16.398;2023-03-01T01:32:01;31.33;;;21.73;;
50126;SDS011;36024;47.974;16.398;2023-03-01T01:34:30;26.67;;;20.53;;
50126;SDS011;36024;47.974;16.398;2023-03-01T01:36:58;29.50;;;21.40;;
50126;SDS011;36024;47.974;16.398;2023-03-01T01:39:31;29.60;;;21.83;;
50126;SDS011;36024;47.974;16.398;2023-03-01T01:42:01;29.13;;;21.30;;
50126;SDS011;36024;47.974;16.398;2023-03-01T01:44:32;31.67;;;21.73;;
50126;SDS011;36024;47.974;16.398;2023-03-01T01:47:05;27.87;;;21.70;;
50126;SDS011;36024;47.974;16.398;2023-03-01T01:49:42;26.60;;;20.73;;
50126;SDS011;36024;47.974;16.398;2023-03-01T01:52:27;29.23;;;21.77;;
50126;SDS011;36024;47.974;16.398;2023-03-01T01:55:14;31.03;;;22.20;;
50126;SDS011;36024;47.974;16.398;2023-03-01T01:57:51;28.93;;;22.00;;
50126;SDS011;36024;47.974;16.398;2023-03-01T02:00:21;28.20;;;20.83;;
50126;SDS011;36024;47.974;16.398;2023-03-01T02:03:03;26.03;;;20.80;;
50126;SDS011;36024;47.974;16.398;2023-03-01T02:05:55;28.10;;;21.10;;
50126;SDS011;36024;47.974;16.398;2023-03-01T02:08:27;29.40;;;21.63;;
50126;SDS011;36024;47.974;16.398;2023-03-01T02:11:03;27.40;;;20.07;;
50126;SDS011;36024;47.974;16.398;2023-03-01T02:13:31;27.33;;;20.93;;
50126;SDS011;36024;47.974;16.398;2023-03-01T02:16:02;27.37;;;20.03;;
50126;SDS011;36024;47.974;16.398;2023-03-01T02:18:30;28.80;;;20.77;;
50126;SDS011;36024;47.974;16.398;2023-03-01T02:21:03;28.73;;;20.80;;
50126;SDS011;36024;47.974;16.398;2023-03-01T02:23:39;27.37;;;19.20;;
50126;SDS011;36024;47.974;16.398;2023-03-01T02:26:10;26.47;;;20.10;;
50126;SDS011;36024;47.974;16.398;2023-03-01T02:28:47;27.33;;;20.57;;
50126;SDS011;36024;47.974;16.398;2023-03-01T02:31:18;26.73;;;18.87;;
50126;SDS011;36024;47.974;16.398;2023-03-01T02:34:05;27.73;;;20.07;;
50126;SDS011;36024;47.974;16.398;2023-03-01T02:36:35;25.00;;;20.07;;
50126;SDS011;36024;47.974;16.398;2023-03-01T02:39:04;26.43;;;19.57;;
50126;SDS011;36024;47.974;16.398;2023-03-01T02:41:36;25.77;;;20.03;;
50126;SDS011;36024;47.974;16.398;2023-03-01T02:44:04;26.13;;;19.80;;
50126;SDS011;36024;47.974;16.398;2023-03-01T02:46:41;26.23;;;20.13;;
50126;SDS011;36024;47.974;16.398;2023-03-01T02:49:29;24.33;;;19.37;;
50126;SDS011;36024;47.974;16.398;2023-03-01T02:55:09;26.87;;;20.40;;
50126;SDS011;36024;47.974;16.398;2023-03-01T02:57:47;26.10;;;19.77;;
50126;SDS011;36024;47.974;16.398;2023-03-01T03:00:21;24.77;;;18.93;;
50126;SDS011;36024;47.974;16.398;2023-03-01T03:02:54;27.00;;;19.73;;
50126;SDS011;36024;47.974;16.398;2023-03-01T03:05:28;24.73;;;19.27;;
50126;SDS011;36024;47.974;16.398;2023-03-01T03:07:57;25.90;;;19.83;;
50126;SDS011;36024;47.974;16.398;2023-03-01T03:10:29;24.33;;;19.53;;
50126;SDS011;36024;47.974;16.398;2023-03-01T03:12:59;22.53;;;18.33;;
50126;SDS011;36024;47.974;16.398;2023-03-01T03:15:27;26.67;;;19.60;;
50126;SDS011;36024;47.974;16.398;2023-03-01T03:17:56;26.13;;;19.27;;
50126;SDS011;36024;47.974;16.398;2023-03-01T03:20:27;24.10;;;19.47;;
50126;SDS011;36024;47.974;16.398;2023-03-01T03:22:57;24.90;;;19.93;;
50126;SDS011;36024;47.974;16.398;2023-03-01T03:25:39;24.40;;;19.30;;
50126;SDS011;36024;47.974;16.398;2023-03-01T03:28:08;27.50;;;19.80;;
50126;SDS011;36024;47.974;16.398;2023-03-01T03:30:38;24.20;;;19.17;;
50126;SDS011;36024;47.974;16.398;2023-03-01T03:33:09;24.67;;;18.70;;
50126;SDS011;36024;47.974;16.398;2023-03-01T03:35:40;24.60;;;19.53;;
50126;SDS011;36024;47.974;16.398;2023-03-01T03:38:13;23.23;;;18.47;;
50126;SDS011;36024;47.974;16.398;2023-03-01T03:40:51;26.10;;;19.37;;
50126;SDS011;36024;47.974;16.398;2023-03-01T03:43:22;24.77;;;19.97;;
50126;SDS011;36024;47.974;16.398;2023-03-01T03:45:50;23.67;;;19.03;;
50126;SDS011;36024;47.974;16.398;2023-03-01T03:48:19;23.13;;;19.60;;
50126;SDS011;36024;47.974;16.398;2023-03-01T03:50:50;24.33;;;20.23;;
50126;SDS011;36024;47.974;16.398;2023-03-01T03:53:21;26.43;;;18.57;;
50126;SDS011;36024;47.974;16.398;2023-03-01T03:55:53;26.33;;;19.63;;
50126;SDS011;36024;47.974;16.398;2023-03-01T03:58:23;24.10;;;18.50;;
50126;SDS011;36024;47.974;16.398;2023-03-01T04:00:51;24.33;;;18.73;;
50126;SDS011;36024;47.974;16.398;2023-03-01T04:03:22;25.63;;;19.43;;
50126;SDS011;36024;47.974;16.398;2023-03-01T04:05:54;24.67;;;18.63;;
50126;SDS011;36024;47.974;16.398;2023-03-01T04:08:23;24.47;;;18.17;;
50126;SDS011;36024;47.974;16.398;2023-03-01T04:10:51;24.37;;;19.40;;
50126;SDS011;36024;47.974;16.398;2023-03-01T04:13:20;24.70;;;19.10;;
50126;SDS011;36024;47.974;16.398;2023-03-01T04:15:51;27.40;;;19.47;;
50126;SDS011;36024;47.974;16.398;2023-03-01T04:18:22;29.17;;;19.80;;
50126;SDS011;36024;47.974;16.398;2023-03-01T04:20:50;23.63;;;19.27;;
50126;SDS011;36024;47.974;16.398;2023-03-01T04:23:19;24.83;;;19.87;;
50126;SDS011;36024;47.974;16.398;2023-03-01T04:25:49;28.20;;;20.17;;
50126;SDS011;36024;47.974;16.398;2023-03-01T04:28:22;27.53;;;20.00;;
50126;SDS011;36024;47.974;16.398;2023-03-01T04:30:53;29.97;;;19.60;;
50126;SDS011;36024;47.974;16.398;2023-03-01T04:33:24;27.13;;;19.53;;
50126;SDS011;36024;47.974;16.398;2023-03-01T04:35:51;24.63;;;18.87;;
50126;SDS011;36024;47.974;16.398;2023-03-01T04:38:21;25.60;;;19.63;;
50126;SDS011;36024;47.974;16.398;2023-03-01T04:40:48;27.00;;;20.63;;
50126;SDS011;36024;47.974;16.398;2023-03-01T04:43:18;26.97;;;20.47;;
50126;SDS011;36024;47.974;16.398;2023-03-01T04:45:48;27.60;;;19.77;;
50126;SDS011;36024;47.974;16.398;2023-03-01T04:48:19;26.93;;;19.87;;
50126;SDS011;36024;47.974;16.398;2023-03-01T04:50:48;25.80;;;19.70;;
50126;SDS011;36024;47.974;16.398;2023-03-01T04:53:16;26.63;;;19.37;;
50126;SDS011;36024;47.974;16.398;2023-03-01T04:55:44;28.37;;;20.23;;
50126;SDS011;36024;47.974;16.398;2023-03-01T04:58:11;24.83;;;20.20;;
50126;SDS011;36024;47.974;16.398;2023-03-01T05:00:41;27.37;;;19.93;;
50126;SDS011;36024;47.974;16.398;2023-03-01T05:03:14;26.07;;;19.37;;
50126;SDS011;36024;47.974;16.398;2023-03-01T05:05:45;26.97;;;19.17;;
50126;SDS011;36024;47.974;16.398;2023-03-01T05:08:13;25.80;;;19.17;;
50126;SDS011;36024;47.974;16.398;2023-03-01T05:10:52;25.87;;;19.00;;
50126;SDS011;36024;47.974;16.398;2023-03-01T05:13:20;25.23;;;19.30;;
50126;SDS011;36024;47.974;16.398;2023-03-01T05:15:48;26.23;;;19.50;;
50126;SDS011;36024;47.974;16.398;2023-03-01T05:18:28;24.07;;;19.03;;
50126;SDS011;36024;47.974;16.398;2023-03-01T05:21:02;25.73;;;19.47;;
50126;SDS011;36024;47.974;16.398;2023-03-01T05:23:37;26.83;;;19.63;;
50126;SDS011;36024;47.974;16.398;2023-03-01T05:26:05;24.77;;;19.13;;
50126;SDS011;36024;47.974;16.398;2023-03-01T05:28:47;27.17;;;19.80;;
50126;SDS011;36024;47.974;16.398;2023-03-01T05:31:32;24.80;;;19.67;;
50126;SDS011;36024;47.974;16.398;2023-03-01T05:34:03;26.13;;;19.63;;
50126;SDS011;36024;47.974;16.398;2023-03-01T05:36:30;24.17;;;19.23;;
50126;SDS011;36024;47.974;16.398;2023-03-01T05:38:57;27.43;;;20.23;;
50126;SDS011;36024;47.974;16.398;2023-03-01T05:41:28;27.77;;;20.87;;
50126;SDS011;36024;47.974;16.398;2023-03-01T05:43:57;25.37;;;19.57;;
50126;SDS011;36024;47.974;16.398;2023-03-01T05:46:25;25.97;;;19.77;;
50126;SDS011;36024;47.974;16.398;2023-03-01T05:48:54;25.17;;;20.47;;
50126;SDS011;36024;47.974;16.398;2023-03-01T05:51:21;27.10;;;20.23;;
50126;SDS011;36024;47.974;16.398;2023-03-01T05:53:53;27.23;;;19.80;;
50126;SDS011;36024;47.974;16.398;2023-03-01T05:56:22;26.13;;;20.27;;
50126;SDS011;36024;47.974;16.398;2023-03-01T05:58:51;26.70;;;20.27;;
50126;SDS011;36024;47.974;16.398;2023-03-01T06:01:20;25.27;;;19.07;;
50126;SDS011;36024;47.974;16.398;2023-03-01T06:03:47;29.60;;;20.63;;
50126;SDS011;36024;47.974;16.398;2023-03-01T06:06:17;25.07;;;19.47;;
50126;SDS011;36024;47.974;16.398;2023-03-01T06:08:46;24.70;;;19.57;;
50126;SDS011;36024;47.974;16.398;2023-03-01T06:11:17;28.80;;;21.63;;
50126;SDS011;36024;47.974;16.398;2023-03-01T06:13:48;28.43;;;21.27;;
50126;SDS011;36024;47.974;16.398;2023-03-01T06:16:18;29.83;;;21.77;;
50126;SDS011;36024;47.974;16.398;2023-03-01T06:18:55;27.10;;;20.37;;
50126;SDS011;36024;47.974;16.398;2023-03-01T06:21:21;28.53;;;21.43;;
50126;SDS011;36024;47.974;16.398;2023-03-01T06:23:54;31.50;;;20.77;;
50126;SDS011;36024;47.974;16.398;2023-03-01T06:26:25;28.67;;;21.00;;
50126;SDS011;36024;47.974;16.398;2023-03-01T06:28:55;28.93;;;22.00;;
50126;SDS011;36024;47.974;16.398;2023-03-01T06:31:24;29.87;;;22.40;;
50126;SDS011;36024;47.974;16.398;2023-03-01T06:34:00;28.87;;;22.30;;
50126;SDS011;36024;47.974;16.398;2023-03-01T06:36:31;31.60;;;22.27;;
50126;SDS011;36024;47.974;16.398;2023-03-01T06:38:58;29.07;;;22.20;;
50126;SDS011;36024;47.974;16.398;2023-03-01T06:41:25;32.07;;;22.30;;
50126;SDS011;36024;47.974;16.398;2023-03-01T06:44:01;32.87;;;23.53;;
50126;SDS011;36024;47.974;16.398;2023-03-01T06:46:28;32.93;;;24.03;;
50126;SDS011;36024;47.974;16.398;2023-03-01T06:48:59;31.90;;;23.30;;
50126;SDS011;36024;47.974;16.398;2023-03-01T06:51:30;31.57;;;21.97;;
50126;SDS011;36024;47.974;16.398;2023-03-01T06:53:56;27.90;;;22.00;;
50126;SDS011;36024;47.974;16.398;2023-03-01T06:56:30;30.97;;;24.27;;
50126;SDS011;36024;47.974;16.398;2023-03-01T06:58:58;34.50;;;24.20;;
50126;SDS011;36024;47.974;16.398;2023-03-01T07:01:31;34.80;;;24.83;;
50126;SDS011;36024;47.974;16.398;2023-03-01T07:03:58;34.90;;;24.80;;
50126;SDS011;36024;47.974;16.398;2023-03-01T07:06:24;32.67;;;23.90;;
50126;SDS011;36024;47.974;16.398;2023-03-01T07:08:52;32.73;;;24.90;;
50126;SDS011;36024;47.974;16.398;2023-03-01T07:11:26;34.10;;;24.60;;
50126;SDS011;36024;47.974;16.398;2023-03-01T07:13:53;32.83;;;23.87;;
50126;SDS011;36024;47.974;16.398;2023-03-01T07:16:22;33.03;;;24.80;;
50126;SDS011;36024;47.974;16.398;2023-03-01T07:18:49;32.23;;;23.57;;
50126;SDS011;36024;47.974;16.398;2023-03-01T07:21:18;36.33;;;26.13;;
50126;SDS011;36024;47.974;16.398;2023-03-01T07:24:08;51.50;;;35.37;;
50126;SDS011;36024;47.974;16.398;2023-03-01T07:26:35;40.50;;;29.93;;
50126;SDS011;36024;47.974;16.398;2023-03-01T07:29:05;33.27;;;25.40;;
50126;SDS011;36024;47.974;16.398;2023-03-01T07:31:33;33.30;;;24.87;;
50126;SDS011;36024;47.974;16.398;2023-03-01T07:34:00;32.23;;;24.70;;
50126;SDS011;36024;47.974;16.398;2023-03-01T07:36:34;34.83;;;24.83;;
50126;SDS011;36024;47.974;16.398;2023-03-01T07:39:05;33.03;;;25.13;;
50126;SDS011;36024;47.974;16.398;2023-03-01T07:41:37;32.87;;;25.33;;
50126;SDS011;36024;47.974;16.398;2023-03-01T07:44:06;34.63;;;25.47;;
50126;SDS011;36024;47.974;16.398;2023-03-01T07:46:34;34.40;;;25.73;;
50126;SDS011;36024;47.974;16.398;2023-03-01T07:49:03;32.33;;;24.97;;
50126;SDS011;36024;47.974;16.398;2023-03-01T07:51:32;35.77;;;25.77;;
50126;SDS011;36024;47.974;16.398;2023-03-01T07:53:59;31.73;;;24.90;;
50126;SDS011;36024;47.974;16.398;2023-03-01T07:56:28;33.43;;;25.30;;
50126;SDS011;36024;47.974;16.398;2023-03-01T07:58:58;34.97;;;25.80;;
50126;SDS011;36024;47.974;16.398;2023-03-01T08:01:47;36.00;;;25.63;;
50126;SDS011;36024;47.974;16.398;2023-03-01T08:04:14;34.27;;;26.23;;
50126;SDS011;36024;47.974;16.398;2023-03-01T08:06:45;35.77;;;26.20;;
50126;SDS011;36024;47.974;16.398;2023-03-01T08:09:12;34.13;;;25.47;;
50126;SDS011;36024;47.974;16.398;2023-03-01T08:11:39;34.27;;;25.97;;
50126;SDS011;36024;47.974;16.398;2023-03-01T08:14:08;34.37;;;25.27;;
50126;SDS011;36024;47.974;16.398;2023-03-01T08:16:35;32.87;;;25.10;;
50126;SDS011;36024;47.974;16.398;2023-03-01T08:19:06;32.30;;;25.83;;
50126;SDS011;36024;47.974;16.398;2023-03-01T08:21:36;33.10;;;25.37;;
50126;SDS011;36024;47.974;16.398;2023-03-01T08:24:04;32.53;;;25.37;;
50126;SDS011;36024;47.974;16.398;2023-03-01T08:26:38;33.57;;;25.63;;
50126;SDS011;36024;47.974;16.398;2023-03-01T08:29:07;34.00;;;25.67;;
50126;SDS011;36024;47.974;16.398;2023-03-01T08:31:41;30.57;;;23.73;;
50126;SDS011;36024;47.974;16.398;2023-03-01T08:34:16;32.90;;;24.40;;
50126;SDS011;36024;47.974;16.398;2023-03-01T08:36:44;34.73;;;25.70;;
50126;SDS011;36024;47.974;16.398;2023-03-01T08:39:13;31.40;;;25.20;;
50126;SDS011;36024;47.974;16.398;2023-03-01T08:41:44;32.87;;;24.73;;
50126;SDS011;36024;47.974;16.398;2023-03-01T08:44:15;30.97;;;25.20;;
50126;SDS011;36024;47.974;16.398;2023-03-01T08:46:51;34.40;;;25.87;;
50126;SDS011;36024;47.974;16.398;2023-03-01T08:49:24;33.50;;;25.90;;
50126;SDS011;36024;47.974;16.398;2023-03-01T08:51:52;33.37;;;26.50;;
50126;SDS011;36024;47.974;16.398;2023-03-01T08:54:22;34.33;;;25.97;;
50126;SDS011;36024;47.974;16.398;2023-03-01T08:56:51;32.07;;;25.67;;
50126;SDS011;36024;47.974;16.398;2023-03-01T08:59:19;32.07;;;25.83;;
50126;SDS011;36024;47.974;16.398;2023-03-01T09:01:52;30.70;;;25.40;;
50126;SDS011;36024;47.974;16.398;2023-03-01T09:04:22;32.23;;;25.63;;
50126;SDS011;36024;47.974;16.398;2023-03-01T09:06:52;31.03;;;25.87;;
50126;SDS011;36024;47.974;16.398;2023-03-01T09:09:24;32.20;;;25.50;;
50126;SDS011;36024;47.974;16.398;2023-03-01T09:11:53;33.07;;;26.43;;
50126;SDS011;36024;47.974;16.398;2023-03-01T09:14:47;30.77;;;24.80;;
50126;SDS011;36024;47.974;16.398;2023-03-01T09:17:13;33.83;;;25.90;;
50126;SDS011;36024;47.974;16.398;2023-03-01T09:19:47;31.33;;;25.90;;
50126;SDS011;36024;47.974;16.398;2023-03-01T09:22:16;35.47;;;28.10;;
50126;SDS011;36024;47.974;16.398;2023-03-01T09:24:43;32.57;;;26.53;;
50126;SDS011;36024;47.974;16.398;2023-03-01T09:27:09;31.00;;;26.20;;
50126;SDS011;36024;47.974;16.398;2023-03-01T09:29:41;30.73;;;26.03;;
50126;SDS011;36024;47.974;16.398;2023-03-01T09:32:14;32.23;;;24.53;;
50126;SDS011;36024;47.974;16.398;2023-03-01T09:34:41;29.90;;;24.70;;
50126;SDS011;36024;47.974;16.398;2023-03-01T09:37:26;29.40;;;24.83;;
50126;SDS011;36024;47.974;16.398;2023-03-01T09:39:54;31.23;;;25.27;;
50126;SDS011;36024;47.974;16.398;2023-03-01T09:42:27;30.17;;;24.90;;
50126;SDS011;36024;47.974;16.398;2023-03-01T09:45:03;28.77;;;23.83;;
50126;SDS011;36024;47.974;16.398;2023-03-01T09:47:34;30.17;;;24.50;;
50126;SDS011;36024;47.974;16.398;2023-03-01T09:50:13;28.23;;;24.43;;
50126;SDS011;36024;47.974;16.398;2023-03-01T09:52:46;27.23;;;23.33;;
50126;SDS011;36024;47.974;16.398;2023-03-01T09:55:40;31.23;;;24.83;;
50126;SDS011;36024;47.974;16.398;2023-03-01T10:09:41;26.60;;;23.43;;
50126;SDS011;36024;47.974;16.398;2023-03-01T10:12:12;28.60;;;23.03;;
50126;SDS011;36024;47.974;16.398;2023-03-01T10:17:27;22.23;;;19.53;;
50126;SDS011;36024;47.974;16.398;2023-03-01T10:20:36;22.10;;;19.47;;
50126;SDS011;36024;47.974;16.398;2023-03-01T10:22:56;25.00;;;19.63;;
50126;SDS011;36024;47.974;16.398;2023-03-01T10:27:59;28.00;;;24.37;;
50126;SDS011;36024;47.974;16.398;2023-03-01T10:36:09;24.30;;;21.23;;
50126;SDS011;36024;47.974;16.398;2023-03-01T10:38:50;25.43;;;22.27;;
50126;SDS011;36024;47.974;16.398;2023-03-01T10:41:30;25.30;;;21.13;;
50126;SDS011;36024;47.974;16.398;2023-03-01T10:44:04;25.57;;;22.13;;
50126;SDS011;36024;47.974;16.398;2023-03-01T10:46:33;24.57;;;21.53;;
50126;SDS011;36024;47.974;16.398;2023-03-01T10:49:20;24.13;;;21.37;;
50126;SDS011;36024;47.974;16.398;2023-03-01T10:51:50;25.63;;;21.90;;
50126;SDS011;36024;47.974;16.398;2023-03-01T10:56:54;25.77;;;21.20;;
50126;SDS011;36024;47.974;16.398;2023-03-01T11:04:57;23.30;;;20.23;;
50126;SDS011;36024;47.974;16.398;2023-03-01T11:07:28;23.97;;;18.83;;
50126;SDS011;36024;47.974;16.398;2023-03-01T11:10:17;24.30;;;19.20;;
50126;SDS011;36024;47.974;16.398;2023-03-01T11:12:44;22.93;;;19.30;;
50126;SDS011;36024;47.974;16.398;2023-03-01T11:15:25;21.17;;;18.53;;
50126;SDS011;36024;47.974;16.398;2023-03-01T11:17:57;20.93;;;17.80;;
50126;SDS011;36024;47.974;16.398;2023-03-01T11:20:39;20.20;;;17.63;;
50126;SDS011;36024;47.974;16.398;2023-03-01T11:23:13;21.07;;;18.73;;
50126;SDS011;36024;47.974;16.398;2023-03-01T11:25:51;20.97;;;18.30;;
50126;SDS011;36024;47.974;16.398;2023-03-01T11:28:23;21.17;;;19.00;;
50126;SDS011;36024;47.974;16.398;2023-03-01T11:30:55;23.43;;;18.63;;
50126;SDS011;36024;47.974;16.398;2023-03-01T11:36:31;23.20;;;17.93;;
50126;SDS011;36024;47.974;16.398;2023-03-01T11:39:15;21.20;;;18.87;;
50126;SDS011;36024;47.974;16.398;2023-03-01T11:41:47;19.83;;;17.70;;
50126;SDS011;36024;47.974;16.398;2023-03-01T11:44:30;19.93;;;17.80;;
50126;SDS011;36024;47.974;16.398;2023-03-01T11:53:28;20.70;;;17.80;;
50126;SDS011;36024;47.974;16.398;2023-03-01T12:04:58;21.37;;;18.20;;
50126;SDS011;36024;47.974;16.398;2023-03-01T12:07:46;20.90;;;18.63;;
50126;SDS011;36024;47.974;16.398;2023-03-01T12:13:04;22.50;;;20.07;;
50126;SDS011;36024;47.974;16.398;2023-03-01T12:15:53;21.70;;;19.43;;
50126;SDS011;36024;47.974;16.398;2023-03-01T12:18:45;22.57;;;20.27;;
50126;SDS011;36024;47.974;16.398;2023-03-01T12:27:21;22.67;;;20.33;;
50126;SDS011;36024;47.974;16.398;2023-03-01T12:33:16;24.77;;;20.83;;
50126;SDS011;36024;47.974;16.398;2023-03-01T12:36:20;21.87;;;19.30;;
50126;SDS011;36024;47.974;16.398;2023-03-01T12:39:13;20.40;;;18.30;;
50126;SDS011;36024;47.974;16.398;2023-03-01T12:50:54;21.70;;;19.50;;
50126;SDS011;36024;47.974;16.398;2023-03-01T12:53:25;20.07;;;18.07;;
50126;SDS011;36024;47.974;16.398;2023-03-01T12:56:23;19.60;;;17.60;;
50126;SDS011;36024;47.974;16.398;2023-03-01T13:07:30;24.97;;;20.43;;
50126;SDS011;36024;47.974;16.398;2023-03-01T13:10:26;21.27;;;18.73;;
50126;SDS011;36024;47.974;16.398;2023-03-01T13:20:24;19.33;;;17.20;;
50126;SDS011;36024;47.974;16.398;2023-03-01T13:23:00;20.70;;;18.33;;
50126;SDS011;36024;47.974;16.398;2023-03-01T13:33:52;20.50;;;18.40;;
50126;SDS011;36024;47.974;16.398;2023-03-01T13:39:18;19.00;;;17.00;;
50126;SDS011;36024;47.974;16.398;2023-03-01T13:41:54;18.13;;;15.93;;
50126;SDS011;36024;47.974;16.398;2023-03-01T13:47:03;17.40;;;15.60;;
50126;SDS011;36024;47.974;16.398;2023-03-01T13:49:36;16.47;;;14.53;;
50126;SDS011;36024;47.974;16.398;2023-03-01T13:55:52;14.30;;;12.80;;
50126;SDS011;36024;47.974;16.398;2023-03-01T13:58:20;14.80;;;13.30;;
50126;SDS011;36024;47.974;16.398;2023-03-01T14:00:56;15.60;;;14.00;;
50126;SDS011;36024;47.974;16.398;2023-03-01T14:03:28;15.30;;;13.00;;
50126;SDS011;36024;47.974;16.398;2023-03-01T14:06:03;14.70;;;13.20;;
50126;SDS011;36024;47.974;16.398;2023-03-01T14:08:41;13.93;;;12.40;;
50126;SDS011;36024;47.974;16.398;2023-03-01T14:22:59;16.57;;;14.87;;
50126;SDS011;36024;47.974;16.398;2023-03-01T14:25:35;18.20;;;15.33;;
50126;SDS011;36024;47.974;16.398;2023-03-01T14:30:50;18.30;;;15.13;;
50126;SDS011;36024;47.974;16.398;2023-03-01T14:33:19;19.33;;;14.90;;
50126;SDS011;36024;47.974;16.398;2023-03-01T14:36:02;16.47;;;14.77;;
50126;SDS011;36024;47.974;16.398;2023-03-01T14:38:37;15.47;;;13.27;;
50126;SDS011;36024;47.974;16.398;2023-03-01T14:41:24;13.27;;;12.00;;
50126;SDS011;36024;47.974;16.398;2023-03-01T14:46:32;13.70;;;12.30;;
50126;SDS011;36024;47.974;16.398;2023-03-01T14:49:04;15.07;;;11.80;;
50126;SDS011;36024;47.974;16.398;2023-03-01T14:51:37;12.53;;;11.23;;
50126;SDS011;36024;47.974;16.398;2023-03-01T14:54:20;12.93;;;11.53;;
50126;SDS011;36024;47.974;16.398;2023-03-01T14:57:01;13.03;;;11.73;;
50126;SDS011;36024;47.974;16.398;2023-03-01T14:59:33;14.57;;;10.87;;
50126;SDS011;36024;47.974;16.398;2023-03-01T15:02:02;12.57;;;11.20;;
50126;SDS011;36024;47.974;16.398;2023-03-01T15:04:32;14.40;;;12.90;;
50126;SDS011;36024;47.974;16.398;2023-03-01T15:07:14;14.17;;;12.77;;
50126;SDS011;36024;47.974;16.398;2023-03-01T15:09:45;14.63;;;13.03;;
50126;SDS011;36024;47.974;16.398;2023-03-01T15:12:25;14.13;;;12.63;;
50126;SDS011;36024;47.974;16.398;2023-03-01T15:14:56;16.10;;;12.60;;
50126;SDS011;36024;47.974;16.398;2023-03-01T15:17:31;13.70;;;12.10;;
50126;SDS011;36024;47.974;16.398;2023-03-01T15:20:04;15.40;;;12.20;;
50126;SDS011;36024;47.974;16.398;2023-03-01T15:22:40;14.57;;;13.03;;
50126;SDS011;36024;47.974;16.398;2023-03-01T15:25:15;16.33;;;13.43;;
50126;SDS011;36024;47.974;16.398;2023-03-01T15:27:46;15.90;;;14.30;;
50126;SDS011;36024;47.974;16.398;2023-03-01T15:30:21;17.03;;;14.30;;
50126;SDS011;36024;47.974;16.398;2023-03-01T15:35:54;15.83;;;14.20;;
50126;SDS011;36024;47.974;16.398;2023-03-01T15:38:54;16.00;;;13.33;;
50126;SDS011;36024;47.974;16.398;2023-03-01T15:43:54;17.80;;;14.00;;
50126;SDS011;36024;47.974;16.398;2023-03-01T15:48:54;15.67;;;13.60;;
50126;SDS011;36024;47.974;16.398;2023-03-01T15:51:36;15.50;;;13.50;;
50126;SDS011;36024;47.974;16.398;2023-03-01T15:54:11;16.03;;;13.83;;
50126;SDS011;36024;47.974;16.398;2023-03-01T15:56:50;19.40;;;14.97;;
50126;SDS011;36024;47.974;16.398;2023-03-01T15:59:18;23.67;;;18.73;;
50126;SDS011;36024;47.974;16.398;2023-03-01T16:01:48;19.73;;;16.80;;
50126;SDS011;36024;47.974;16.398;2023-03-01T16:04:17;15.40;;;13.17;;
50126;SDS011;36024;47.974;16.398;2023-03-01T16:06:53;16.33;;;14.60;;
50126;SDS011;36024;47.974;16.398;2023-03-01T16:09:24;13.97;;;11.63;;
50126;SDS011;36024;47.974;16.398;2023-03-01T16:11:54;12.93;;;11.63;;
50126;SDS011;36024;47.974;16.398;2023-03-01T16:14:23;14.60;;;12.40;;
50126;SDS011;36024;47.974;16.398;2023-03-01T16:16:49;14.03;;;12.50;;
50126;SDS011;36024;47.974;16.398;2023-03-01T16:19:16;15.50;;;13.80;;
50126;SDS011;36024;47.974;16.398;2023-03-01T16:21:45;15.93;;;12.17;;
50126;SDS011;36024;47.974;16.398;2023-03-01T16:24:16;15.77;;;12.57;;
50126;SDS011;36024;47.974;16.398;2023-03-01T16:26:47;14.17;;;11.33;;
50126;SDS011;36024;47.974;16.398;2023-03-01T16:29:15;14.37;;;12.90;;
50126;SDS011;36024;47.974;16.398;2023-03-01T16:31:42;13.33;;;11.93;;
50126;SDS011;36024;47.974;16.398;2023-03-01T16:34:16;12.73;;;11.33;;
50126;SDS011;36024;47.974;16.398;2023-03-01T16:36:43;12.43;;;11.17;;
50126;SDS011;36024;47.974;16.398;2023-03-01T16:39:16;12.73;;;11.10;;
50126;SDS011;36024;47.974;16.398;2023-03-01T16:41:46;13.57;;;11.10;;
50126;SDS011;36024;47.974;16.398;2023-03-01T16:44:16;13.17;;;11.00;;
50126;SDS011;36024;47.974;16.398;2023-03-01T16:46:42;13.57;;;11.70;;
50126;SDS011;36024;47.974;16.398;2023-03-01T16:49:09;14.03;;;11.47;;
50126;SDS011;36024;47.974;16.398;2023-03-01T16:51:39;13.27;;;11.73;;